createdAt,value
2023-05-05T00:02:06.513Z,94960.19
2023-05-05T00:04:32.840Z,94954.41
2023-05-05T00:06:59.164Z,94950.06
2023-05-05T00:09:25.460Z,94954.88
2023-05-05T00:11:51.764Z,94955.09
2023-05-05T00:14:18.094Z,94951.94
2023-05-05T00:16:44.451Z,94952.91
2023-05-05T00:19:11.201Z,94954.75
2023-05-05T00:21:37.542Z,94947.72
2023-05-05T00:24:03.890Z,94961.03
2023-05-05T00:26:30.242Z,94954.09
2023-05-05T00:28:56.569Z,94947.94
2023-05-05T00:31:22.893Z,94947.13
2023-05-05T00:33:49.269Z,94950.16
2023-05-05T00:36:15.601Z,94947.28
2023-05-05T00:38:41.935Z,94936.53
2023-05-05T00:41:08.238Z,94940.84
2023-05-05T00:43:34.564Z,94928.75
2023-05-05T00:46:00.915Z,94938.47
2023-05-05T00:48:27.268Z,94930.31
2023-05-05T00:50:53.588Z,94930.47
2023-05-05T00:53:19.897Z,94930.47
2023-05-05T00:55:46.209Z,94929.28
2023-05-05T00:58:12.524Z,94922.69
2023-05-05T01:00:38.838Z,94929.28
2023-05-05T01:03:05.269Z,94923.06
2023-05-05T01:05:31.670Z,94922.47
2023-05-05T01:07:58.000Z,94921.28
2023-05-05T01:10:24.543Z,94923.59
2023-05-05T01:12:51.109Z,94917.66
2023-05-05T01:15:17.464Z,94919.94
2023-05-05T01:17:43.790Z,94918.78
2023-05-05T01:20:10.299Z,94910.03
2023-05-05T01:22:36.704Z,94916.69
2023-05-05T01:25:03.024Z,94918.38
2023-05-05T01:27:29.377Z,94913.66
2023-05-05T01:29:55.694Z,94907.66
2023-05-05T01:32:22.027Z,94907.88
2023-05-05T01:34:48.345Z,94907.66
2023-05-05T01:37:14.672Z,94908.94
2023-05-05T01:39:41.003Z,94915.13
2023-05-05T01:42:07.313Z,94913.81
2023-05-05T01:44:33.647Z,94915.06
2023-05-05T01:46:59.978Z,94913.06
2023-05-05T01:49:26.299Z,94916.00
2023-05-05T01:51:52.620Z,94910.38
2023-05-05T01:54:18.940Z,94909.97
2023-05-05T01:56:45.241Z,94908.53
2023-05-05T01:59:11.570Z,94914.78
2023-05-05T02:01:37.942Z,94913.50
2023-05-05T02:04:04.302Z,94915.78
2023-05-05T02:06:30.620Z,94910.47
2023-05-05T02:08:56.944Z,94910.25
2023-05-05T02:11:23.252Z,94916.81
2023-05-05T02:13:49.582Z,94914.09
2023-05-05T02:16:15.977Z,94915.56
2023-05-05T02:18:42.312Z,94915.03
2023-05-05T02:21:08.621Z,94912.25
2023-05-05T02:23:34.956Z,94914.38
2023-05-05T02:26:01.285Z,94913.63
2023-05-05T02:28:27.592Z,94905.41
2023-05-05T02:30:53.911Z,94911.59
2023-05-05T02:33:20.231Z,94917.41
2023-05-05T02:35:46.562Z,94912.91
2023-05-05T02:38:12.879Z,94911.22
2023-05-05T02:40:39.204Z,94907.66
2023-05-05T02:43:05.571Z,94905.72
2023-05-05T02:45:31.910Z,94907.72
2023-05-05T02:47:58.266Z,94910.63
2023-05-05T02:50:24.589Z,94909.13
2023-05-05T02:52:50.912Z,94909.00
2023-05-05T02:55:17.216Z,94909.88
2023-05-05T02:57:43.534Z,94909.47
2023-05-05T03:00:09.972Z,94915.47
2023-05-05T03:02:36.492Z,94918.34
2023-05-05T03:05:02.860Z,94912.03
2023-05-05T03:07:29.222Z,94910.41
2023-05-05T03:09:55.544Z,94901.03
2023-05-05T03:12:21.868Z,94904.28
2023-05-05T03:14:48.173Z,94891.59
2023-05-05T03:17:14.500Z,94903.72
2023-05-05T03:19:40.872Z,94894.75
2023-05-05T03:22:07.219Z,94898.50
2023-05-05T03:24:33.571Z,94891.19
2023-05-05T03:26:59.902Z,94893.22
2023-05-05T03:29:26.224Z,94897.50
2023-05-05T03:31:52.576Z,94891.44
2023-05-05T03:34:18.997Z,94897.03
2023-05-05T03:36:45.338Z,94900.78
2023-05-05T03:39:11.649Z,94898.28
2023-05-05T03:41:37.958Z,94897.09
2023-05-05T03:44:04.254Z,94891.81
2023-05-05T03:46:30.550Z,94894.06
2023-05-05T03:48:56.868Z,94889.56
2023-05-05T03:51:23.181Z,94891.19
2023-05-05T03:53:49.492Z,94901.41
2023-05-05T03:56:15.790Z,94899.00
2023-05-05T03:58:42.121Z,94899.81
2023-05-05T04:01:08.433Z,94903.72
2023-05-05T04:03:34.827Z,94894.81
2023-05-05T04:06:01.180Z,94891.91
2023-05-05T04:08:27.519Z,94893.94
2023-05-05T04:10:53.847Z,94891.22
2023-05-05T04:13:20.159Z,94870.81
2023-05-05T04:15:46.524Z,94880.25
2023-05-05T04:18:12.896Z,94879.59
2023-05-05T04:20:39.209Z,94875.28
2023-05-05T04:23:05.517Z,94885.47
2023-05-05T04:25:31.840Z,94881.19
2023-05-05T04:27:58.146Z,94881.41
2023-05-05T04:30:24.464Z,94878.13
2023-05-05T04:32:50.812Z,94883.44
2023-05-05T04:35:17.126Z,94884.63
2023-05-05T04:37:43.441Z,94883.03
2023-05-05T04:40:09.841Z,94882.59
2023-05-05T04:42:36.346Z,94884.88
2023-05-05T04:45:02.659Z,94883.38
2023-05-05T04:47:28.995Z,94882.78
2023-05-05T04:49:55.340Z,94879.31
2023-05-05T04:52:21.655Z,94877.84
2023-05-05T04:54:47.980Z,94880.50
2023-05-05T04:57:14.307Z,94881.09
2023-05-05T04:59:40.621Z,94881.34
2023-05-05T05:02:06.974Z,94882.97
2023-05-05T05:04:33.313Z,94888.69
2023-05-05T05:06:59.644Z,94887.25
2023-05-05T05:09:25.991Z,94887.47
2023-05-05T05:11:52.334Z,94886.66
2023-05-05T05:14:18.647Z,94892.34
2023-05-05T05:16:45.011Z,94895.78
2023-05-05T05:19:11.385Z,94888.84
2023-05-05T05:21:37.709Z,94890.00
2023-05-05T05:24:04.027Z,94889.78
2023-05-05T05:26:30.342Z,94892.25
2023-05-05T05:28:56.649Z,94897.97
2023-05-05T05:31:22.979Z,94899.22
2023-05-05T05:33:49.308Z,94902.09
2023-05-05T05:36:15.625Z,94904.13
2023-05-05T05:38:41.957Z,94906.25
2023-05-05T05:41:08.297Z,94914.38
2023-05-05T05:43:34.630Z,94916.31
2023-05-05T05:46:01.014Z,94914.69
2023-05-05T05:48:27.362Z,94919.56
2023-05-05T05:50:53.668Z,94919.94
2023-05-05T05:53:20.004Z,94921.56
2023-05-05T05:55:46.329Z,94924.25
2023-05-05T05:58:12.634Z,94923.78
2023-05-05T06:00:38.961Z,94924.75
2023-05-05T06:03:05.390Z,94922.56
2023-05-05T06:05:31.864Z,94922.69
2023-05-05T06:07:58.203Z,94919.38
2023-05-05T06:10:27.485Z,94921.78
2023-05-05T06:12:54.593Z,94925.63
2023-05-05T06:15:20.964Z,94913.66
2023-05-05T06:17:47.292Z,94923.09
2023-05-05T06:20:13.653Z,94916.53
2023-05-05T06:22:39.998Z,94923.19
2023-05-05T06:25:06.298Z,94922.66
2023-05-05T06:27:32.624Z,94931.25
2023-05-05T06:29:58.951Z,94924.59
2023-05-05T06:32:25.276Z,94926.22
2023-05-05T06:34:51.641Z,94920.81
2023-05-05T06:37:17.983Z,94925.81
2023-05-05T06:39:44.312Z,94924.16
2023-05-05T06:42:10.624Z,94925.72
2023-05-05T06:44:36.936Z,94922.47
2023-05-05T06:47:03.303Z,94925.72
2023-05-05T06:49:29.638Z,94926.03
2023-05-05T06:51:55.957Z,94923.50
2023-05-05T06:54:22.304Z,94917.97
2023-05-05T06:56:48.634Z,94922.31
2023-05-05T06:59:14.963Z,94910.09
2023-05-05T07:01:41.269Z,94919.72
2023-05-05T07:04:07.639Z,94919.19
2023-05-05T07:06:34.016Z,94918.31
2023-05-05T07:09:00.335Z,94918.09
2023-05-05T07:11:26.656Z,94927.19
2023-05-05T07:13:53.194Z,94915.47
2023-05-05T07:16:19.578Z,94914.13
2023-05-05T07:18:45.916Z,94918.31
2023-05-05T07:21:12.249Z,94922.13
2023-05-05T07:23:38.564Z,94924.50
2023-05-05T07:26:04.890Z,94920.75
2023-05-05T07:28:31.218Z,94914.13
2023-05-05T07:30:57.527Z,94916.06
2023-05-05T07:33:23.844Z,94910.97
2023-05-05T07:35:50.172Z,94908.66
2023-05-05T07:38:16.488Z,94905.53
2023-05-05T07:40:42.795Z,94907.00
2023-05-05T07:43:09.121Z,94904.31
2023-05-05T07:45:35.433Z,94906.69
2023-05-05T07:48:01.828Z,94900.84
2023-05-05T07:50:28.155Z,94907.25
2023-05-05T07:53:02.449Z,94905.78
2023-05-05T07:55:36.812Z,94902.97
2023-05-05T07:58:03.184Z,94901.41
2023-05-05T08:00:29.509Z,94901.88
2023-05-05T08:02:55.896Z,94900.03
2023-05-05T08:05:22.381Z,94897.13
2023-05-05T08:07:48.681Z,94889.63
2023-05-05T08:10:15.005Z,94888.13
2023-05-05T08:12:41.351Z,94895.78
2023-05-05T08:15:08.015Z,94888.34
2023-05-05T08:17:34.633Z,94891.28
2023-05-05T08:20:00.981Z,94890.78
2023-05-05T08:22:27.285Z,94891.50
2023-05-05T08:24:53.590Z,94888.81
2023-05-05T08:27:19.902Z,94891.03
2023-05-05T08:29:46.236Z,94890.53
2023-05-05T08:32:12.569Z,94892.63
2023-05-05T08:34:38.875Z,94897.38
2023-05-05T08:37:05.187Z,94892.88
2023-05-05T08:39:31.513Z,94895.44
2023-05-05T08:41:57.824Z,94897.66
2023-05-05T08:44:24.156Z,94887.75
2023-05-05T08:46:50.522Z,94883.94
2023-05-05T08:49:16.952Z,94895.75
2023-05-05T08:51:43.294Z,94888.91
2023-05-05T08:54:09.618Z,94885.59
2023-05-05T08:56:35.950Z,94873.63
2023-05-05T08:59:02.278Z,94873.50
2023-05-05T09:01:28.723Z,94876.31
2023-05-05T09:03:55.084Z,94872.50
2023-05-05T09:06:21.410Z,94870.13
2023-05-05T09:08:47.744Z,94871.81
2023-05-05T09:11:14.074Z,94867.38
2023-05-05T09:13:40.406Z,94866.28
2023-05-05T09:16:06.754Z,94866.63
2023-05-05T09:18:33.085Z,94868.44
2023-05-05T09:20:59.599Z,94872.69
2023-05-05T09:23:26.016Z,94864.66
2023-05-05T09:25:52.329Z,94868.09
2023-05-05T09:28:18.696Z,94867.47
2023-05-05T09:30:45.043Z,94863.97
2023-05-05T09:33:11.510Z,94861.25
2023-05-05T09:35:37.868Z,94861.88
2023-05-05T09:38:04.177Z,94862.97
2023-05-05T09:40:30.493Z,94856.41
2023-05-05T09:42:56.820Z,94857.47
2023-05-05T09:45:23.158Z,94848.63
2023-05-05T09:47:49.547Z,94840.31
2023-05-05T09:50:16.144Z,94837.22
2023-05-05T09:52:42.659Z,94835.44
2023-05-05T09:55:08.986Z,94833.13
2023-05-05T09:57:35.314Z,94831.44
2023-05-05T10:00:01.632Z,94831.69
2023-05-05T10:02:27.962Z,94830.50
2023-05-05T10:04:54.335Z,94821.78
2023-05-05T10:07:20.657Z,94829.41
2023-05-05T10:09:46.990Z,94832.00
2023-05-05T10:12:13.321Z,94821.34
2023-05-05T10:14:39.641Z,94823.66
2023-05-05T10:17:05.954Z,94817.09
2023-05-05T10:19:32.276Z,94814.56
2023-05-05T10:21:58.591Z,94814.22
2023-05-05T10:24:24.952Z,94812.06
2023-05-05T10:26:51.286Z,94809.31
2023-05-05T10:29:17.630Z,94813.13
2023-05-05T10:31:43.986Z,94813.41
2023-05-05T10:34:10.514Z,94818.41
2023-05-05T10:36:36.925Z,94816.44
2023-05-05T10:39:03.273Z,94812.25
2023-05-05T10:41:29.645Z,94807.06
2023-05-05T10:43:55.962Z,94803.38
2023-05-05T10:46:22.319Z,94801.41
2023-05-05T10:48:48.728Z,94802.69
2023-05-05T10:51:23.871Z,94800.00
2023-05-05T10:53:57.773Z,94795.81
2023-05-05T10:56:24.102Z,94798.19
2023-05-05T10:58:59.742Z,94792.50
2023-05-05T11:01:26.773Z,94791.34
2023-05-05T11:03:53.108Z,94791.34
2023-05-05T11:06:19.499Z,94781.13
2023-05-05T11:08:45.859Z,94785.03
2023-05-05T11:11:12.176Z,94773.84
2023-05-05T11:13:38.493Z,94779.13
2023-05-05T11:16:04.900Z,94772.19
2023-05-05T11:18:31.236Z,94774.41
2023-05-05T11:20:57.538Z,94776.50
2023-05-05T11:23:23.858Z,94761.19
2023-05-05T11:25:50.170Z,94763.59
2023-05-05T11:28:16.525Z,94754.81
2023-05-05T11:30:42.863Z,94743.63
2023-05-05T11:33:09.230Z,94761.19
2023-05-05T11:35:35.647Z,94761.81
2023-05-05T11:38:01.966Z,94747.56
2023-05-05T11:40:28.385Z,94754.63
2023-05-05T11:42:54.696Z,94751.09
2023-05-05T11:45:21.023Z,94751.09
2023-05-05T11:47:47.384Z,94752.50
2023-05-05T11:50:13.698Z,94748.72
2023-05-05T11:52:40.024Z,94743.63
2023-05-05T11:55:06.349Z,94744.44
2023-05-05T11:57:32.651Z,94742.81
2023-05-05T11:59:58.955Z,94745.78
2023-05-05T12:02:25.383Z,94744.97
2023-05-05T12:04:51.800Z,94738.78
2023-05-05T12:07:18.201Z,94733.09
2023-05-05T12:09:44.561Z,94735.78
2023-05-05T12:12:10.878Z,94732.03
2023-05-05T12:14:37.203Z,94733.91
2023-05-05T12:17:03.513Z,94732.84
2023-05-05T12:19:29.822Z,94714.81
2023-05-05T12:21:56.127Z,94727.19
2023-05-05T12:24:22.453Z,94726.88
2023-05-05T12:26:48.757Z,94719.63
2023-05-05T12:29:15.076Z,94729.06
2023-05-05T12:31:41.692Z,94723.41
2023-05-05T12:34:08.106Z,94727.91
2023-05-05T12:36:34.410Z,94726.59
2023-05-05T12:39:00.762Z,94731.41
2023-05-05T12:41:27.091Z,94735.81
2023-05-05T12:43:53.404Z,94729.09
2023-05-05T12:46:19.762Z,94717.06
2023-05-05T12:48:48.277Z,94723.03
2023-05-05T12:51:14.935Z,94717.22
2023-05-05T12:53:41.259Z,94719.16
2023-05-05T12:56:07.580Z,94716.19
2023-05-05T12:58:33.882Z,94715.06
2023-05-05T13:01:00.294Z,94713.28
2023-05-05T13:03:26.830Z,94706.81
2023-05-05T13:05:53.249Z,94709.28
2023-05-05T13:08:19.573Z,94717.75
2023-05-05T13:10:45.871Z,94700.81
2023-05-05T13:13:12.291Z,94707.59
2023-05-05T13:15:38.720Z,94700.34
2023-05-05T13:18:05.109Z,94694.00
2023-05-05T13:20:31.458Z,94689.75
2023-05-05T13:22:57.763Z,94682.22
2023-05-05T13:25:24.079Z,94681.69
2023-05-05T13:27:50.408Z,94691.72
2023-05-05T13:30:16.755Z,94690.09
2023-05-05T13:32:43.089Z,94692.84
2023-05-05T13:35:09.641Z,94695.19
2023-05-05T13:37:36.163Z,94702.09
2023-05-05T13:40:02.494Z,94706.66
2023-05-05T13:42:28.797Z,94702.59
2023-05-05T13:44:55.098Z,94703.97
2023-05-05T13:47:21.475Z,94704.06
2023-05-05T13:49:47.867Z,94711.63
2023-05-05T13:52:14.185Z,94704.81
2023-05-05T13:54:40.532Z,94706.81
2023-05-05T13:57:06.877Z,94699.41
2023-05-05T13:59:33.193Z,94701.31
2023-05-05T14:01:59.502Z,94700.81
2023-05-05T14:04:25.941Z,94694.66
2023-05-05T14:06:52.311Z,94688.47
2023-05-05T14:09:18.638Z,94692.50
2023-05-05T14:11:44.983Z,94689.81
2023-05-05T14:14:11.310Z,94687.47
2023-05-05T14:16:37.667Z,94691.00
2023-05-05T14:19:04.009Z,94682.16
2023-05-05T14:21:30.390Z,94688.34
2023-05-05T14:23:56.721Z,94681.63
2023-05-05T14:26:23.071Z,94681.13
2023-05-05T14:28:50.093Z,94683.00
2023-05-05T14:31:16.522Z,94683.25
2023-05-05T14:33:42.844Z,94682.16
2023-05-05T14:36:09.185Z,94681.63
2023-05-05T14:38:35.578Z,94678.38
2023-05-05T14:41:01.974Z,94678.41
2023-05-05T14:43:28.324Z,94677.25
2023-05-05T14:45:54.670Z,94685.34
2023-05-05T14:48:21.011Z,94681.06
2023-05-05T14:50:47.325Z,94687.31
2023-05-05T14:53:13.633Z,94682.19
2023-05-05T14:55:39.939Z,94691.34
2023-05-05T14:58:06.416Z,94690.25
2023-05-05T15:00:32.737Z,94689.72
2023-05-05T15:02:59.239Z,94692.38
2023-05-05T15:05:25.626Z,94696.16
2023-05-05T15:07:52.065Z,94702.59
2023-05-05T15:10:19.745Z,94697.19
2023-05-05T15:12:48.119Z,94704.41
2023-05-05T15:15:14.483Z,94707.28
2023-05-05T15:17:40.836Z,94704.88
2023-05-05T15:20:07.151Z,94705.69
2023-05-05T15:22:33.450Z,94703.16
2023-05-05T15:24:59.778Z,94695.94
2023-05-05T15:27:26.083Z,94711.03
2023-05-05T15:29:52.395Z,94706.13
2023-05-05T15:32:18.732Z,94699.09
2023-05-05T15:34:45.072Z,94700.94
2023-05-05T15:37:11.390Z,94697.72
2023-05-05T15:39:37.728Z,94695.28
2023-05-05T15:42:04.042Z,94700.63
2023-05-05T15:44:30.361Z,94705.72
2023-05-05T15:46:56.732Z,94703.31
2023-05-05T15:49:23.105Z,94699.25
2023-05-05T15:51:49.431Z,94704.44
2023-05-05T15:54:15.784Z,94705.63
2023-05-05T15:56:42.097Z,94716.91
2023-05-05T15:59:08.421Z,94721.00
2023-05-05T16:01:34.794Z,94724.75
2023-05-05T16:04:01.219Z,94738.53
2023-05-05T16:06:27.536Z,94742.19
2023-05-05T16:08:53.861Z,94749.63
2023-05-05T16:11:22.381Z,94744.81
2023-05-05T16:13:48.828Z,94732.28
2023-05-05T16:16:15.537Z,94726.94
2023-05-05T16:18:41.937Z,94720.22
2023-05-05T16:21:08.245Z,94735.50
2023-05-05T16:23:34.545Z,94725.59
2023-05-05T16:26:00.859Z,94729.50
2023-05-05T16:28:27.177Z,94729.41
2023-05-05T16:30:53.495Z,94723.19
2023-05-05T16:33:19.819Z,94731.94
2023-05-05T16:35:46.131Z,94722.41
2023-05-05T16:38:12.438Z,94725.34
2023-05-05T16:40:38.741Z,94721.72
2023-05-05T16:43:05.063Z,94718.72
2023-05-05T16:45:31.372Z,94720.34
2023-05-05T16:47:57.732Z,94722.69
2023-05-05T16:50:24.095Z,94720.28
2023-05-05T16:52:50.426Z,94720.44
2023-05-05T16:55:16.765Z,94722.97
2023-05-05T16:57:43.121Z,94713.47
2023-05-05T17:00:09.465Z,94727.75
2023-05-05T17:02:35.822Z,94705.66
2023-05-05T17:05:02.181Z,94712.00
2023-05-05T17:07:28.519Z,94713.25
2023-05-05T17:09:54.861Z,94707.47
2023-05-05T17:12:21.167Z,94716.53
2023-05-05T17:14:47.466Z,94704.13
2023-05-05T17:17:13.781Z,94714.50
2023-05-05T17:19:40.122Z,94707.88
2023-05-05T17:22:06.445Z,94714.53
2023-05-05T17:24:32.750Z,94708.63
2023-05-05T17:26:59.064Z,94714.66
2023-05-05T17:29:25.375Z,94716.63
2023-05-05T17:31:51.751Z,94721.22
2023-05-05T17:34:18.142Z,94720.88
2023-05-05T17:36:44.472Z,94729.53
2023-05-05T17:39:10.775Z,94719.47
2023-05-05T17:41:37.084Z,94726.41
2023-05-05T17:44:03.408Z,94729.59
2023-05-05T17:46:29.794Z,94737.97
2023-05-05T17:48:56.161Z,94725.13
2023-05-05T17:51:22.517Z,94730.91
2023-05-05T17:53:48.851Z,94732.38
2023-05-05T17:56:15.221Z,94735.75
2023-05-05T17:58:41.538Z,94733.97
2023-05-05T18:01:07.937Z,94732.25
2023-05-05T18:03:34.411Z,94729.69
2023-05-05T18:06:00.856Z,94737.78
2023-05-05T18:08:27.169Z,94748.63
2023-05-05T18:10:53.474Z,94745.03
2023-05-05T18:13:19.905Z,94747.59
2023-05-05T18:15:46.483Z,94746.75
2023-05-05T18:18:12.873Z,94748.28
2023-05-05T18:20:39.287Z,94752.19
2023-05-05T18:23:05.601Z,94751.75
2023-05-05T18:25:31.946Z,94745.09
2023-05-05T18:27:59.351Z,94747.31
2023-05-05T18:30:25.688Z,94751.97
2023-05-05T18:32:52.035Z,94750.38
2023-05-05T18:35:18.390Z,94750.97
2023-05-05T18:37:44.717Z,94750.34
2023-05-05T18:40:11.039Z,94760.19
2023-05-05T18:42:37.345Z,94756.34
2023-05-05T18:45:03.681Z,94756.84
2023-05-05T18:47:30.019Z,94759.63
2023-05-05T18:49:56.361Z,94752.88
2023-05-05T18:52:22.717Z,94756.41
2023-05-05T18:54:49.040Z,94761.56
2023-05-05T18:57:15.346Z,94758.16
2023-05-05T18:59:41.666Z,94755.75
2023-05-05T19:02:07.980Z,94767.06
2023-05-05T19:04:34.321Z,94766.44
2023-05-05T19:07:00.686Z,94763.84
2023-05-05T19:09:27.029Z,94773.41
2023-05-05T19:11:53.329Z,94774.94
2023-05-05T19:14:19.646Z,94772.25
2023-05-05T19:16:46.094Z,94779.75
2023-05-05T19:19:12.441Z,94784.84
2023-05-05T19:21:38.764Z,94785.25
2023-05-05T19:24:05.064Z,94789.28
2023-05-05T19:26:31.398Z,94781.03
2023-05-05T19:28:57.723Z,94783.47
2023-05-05T19:31:24.044Z,94784.41
2023-05-05T19:33:50.404Z,94782.16
2023-05-05T19:36:16.725Z,94785.41
2023-05-05T19:38:43.024Z,94791.94
2023-05-05T19:41:09.348Z,94798.50
2023-05-05T19:43:35.658Z,94793.31
2023-05-05T19:46:02.007Z,94793.31
2023-05-05T19:48:28.348Z,94787.97
2023-05-05T19:50:54.669Z,94787.19
2023-05-05T19:53:20.979Z,94789.59
2023-05-05T19:55:47.282Z,94799.94
2023-05-05T19:58:13.620Z,94791.22
2023-05-05T20:00:39.937Z,94792.22
2023-05-05T20:03:06.279Z,94795.09
2023-05-05T20:05:32.678Z,94798.16
2023-05-05T20:07:59.000Z,94793.09
2023-05-05T20:10:25.309Z,94800.09
2023-05-05T20:12:51.688Z,94795.00
2023-05-05T20:15:18.039Z,94800.47
2023-05-05T20:17:44.376Z,94792.22
2023-05-05T20:20:10.836Z,94788.19
2023-05-05T20:22:38.697Z,94792.50
2023-05-05T20:25:05.784Z,94789.00
2023-05-05T20:27:32.986Z,94789.25
2023-05-05T20:30:01.148Z,94789.13
2023-05-05T20:32:27.491Z,94785.97
2023-05-05T20:34:53.833Z,94791.88
2023-05-05T20:37:20.183Z,94791.25
2023-05-05T20:39:46.529Z,94795.81
2023-05-05T20:42:12.833Z,94800.88
2023-05-05T20:44:39.174Z,94794.97
2023-05-05T20:47:05.521Z,94802.38
2023-05-05T20:49:31.897Z,94797.94
2023-05-05T20:51:58.298Z,94804.56
2023-05-05T20:54:24.620Z,94808.84
2023-05-05T20:56:50.940Z,94803.44
2023-05-05T20:59:17.264Z,94804.91
2023-05-05T21:01:43.616Z,94814.53
2023-05-05T21:04:09.937Z,94807.59
2023-05-05T21:06:36.237Z,94805.47
2023-05-05T21:09:02.562Z,94809.06
2023-05-05T21:11:28.877Z,94809.06
2023-05-05T21:13:55.182Z,94807.59
2023-05-05T21:16:21.532Z,94802.03
2023-05-05T21:18:47.880Z,94807.50
2023-05-05T21:21:14.181Z,94798.09
2023-05-05T21:23:40.487Z,94801.31
2023-05-05T21:26:06.856Z,94797.75
2023-05-05T21:28:33.188Z,94788.25
2023-05-05T21:31:20.548Z,94782.81
2023-05-05T21:33:45.812Z,94792.47
2023-05-05T21:36:12.133Z,94790.13
2023-05-05T21:38:38.451Z,94788.84
2023-05-05T21:41:04.824Z,94784.31
2023-05-05T21:43:31.171Z,94775.97
2023-05-05T21:45:57.553Z,94784.69
2023-05-05T21:48:23.924Z,94789.91
2023-05-05T21:50:50.273Z,94797.56
2023-05-05T21:53:16.586Z,94795.84
2023-05-05T21:55:42.887Z,94794.91
2023-05-05T21:58:09.195Z,94802.00
2023-05-05T22:00:35.509Z,94814.06
2023-05-05T22:03:01.928Z,94808.16
2023-05-05T22:05:28.297Z,94811.31
2023-05-05T22:07:54.624Z,94815.72
2023-05-05T22:10:20.933Z,94813.84
2023-05-05T22:12:47.298Z,94808.00
2023-05-05T22:15:13.622Z,94800.56
2023-05-05T22:17:39.945Z,94796.47
2023-05-05T22:20:06.486Z,94780.16
2023-05-05T22:22:32.933Z,94783.75
2023-05-05T22:24:59.269Z,94783.03
2023-05-05T22:27:25.573Z,94759.47
2023-05-05T22:29:51.994Z,94760.63
2023-05-05T22:32:18.362Z,94773.25
2023-05-05T22:34:44.673Z,94784.03
2023-05-05T22:37:10.987Z,94788.56
2023-05-05T22:39:37.322Z,94783.66
2023-05-05T22:42:03.649Z,94790.91
2023-05-05T22:44:29.986Z,94781.72
2023-05-05T22:46:56.504Z,94777.28
2023-05-05T22:49:22.917Z,94775.31
2023-05-05T22:51:49.289Z,94784.94
2023-05-05T22:54:15.591Z,94786.72
2023-05-05T22:56:41.904Z,94787.84
2023-05-05T22:59:08.254Z,94787.94
2023-05-05T23:01:35.036Z,94787.63
2023-05-05T23:04:01.347Z,94780.41
2023-05-05T23:06:27.684Z,94786.56
2023-05-05T23:08:53.997Z,94783.56
2023-05-05T23:11:20.309Z,94782.16
2023-05-05T23:13:46.617Z,94784.44
2023-05-05T23:16:12.940Z,94780.63
2023-05-05T23:18:39.265Z,94786.88
2023-05-05T23:21:05.639Z,94790.22
2023-05-05T23:23:31.967Z,94796.59
2023-05-05T23:25:58.295Z,94799.91
2023-05-05T23:28:24.612Z,94791.16
2023-05-05T23:30:50.949Z,94796.44
2023-05-05T23:33:17.308Z,94787.03
2023-05-05T23:35:43.653Z,94787.47
2023-05-05T23:38:09.955Z,94790.75
2023-05-05T23:40:36.261Z,94790.28
2023-05-05T23:43:02.579Z,94785.44
2023-05-05T23:45:28.902Z,94786.38
2023-05-05T23:47:55.236Z,94778.25
2023-05-05T23:50:21.626Z,94778.59
2023-05-05T23:52:47.933Z,94781.84
2023-05-05T23:55:14.255Z,94774.03
2023-05-05T23:57:40.586Z,94771.19
